This is the latest recevied weather packets stored in our database for station/object WW3TRG. If no packets are shown the sender has not sent any weather packets the latest 10 day(s).
| Time | Temp. | Humidity | Pressure | Rain* | Wind** | Luminosity | Snow |
|---|---|---|---|---|---|---|---|
| 1778187498 | 18.33° C | 35% | 1007 hPa | 0 mm | - | 420 W/m² | - |
| 1778187195 | 19.44° C | 34% | 1007 hPa | 0 mm | - | 405 W/m² | - |
| 1778186891 | 18.33° C | 35% | 1007.1 hPa | 0 mm | - | 462 W/m² | - |
| 1778186589 | 18.33° C | 35% | 1006.8 hPa | 0 mm | - | 349 W/m² | - |
| 1778186287 | 18.33° C | 36% | 1006.8 hPa | 0 mm | - | 466 W/m² | - |
| 1778185984 | 18.33° C | 36% | 1007 hPa | 0 mm | - | 467 W/m² | - |
| 1778185680 | 18.33° C | 37% | 1006.9 hPa | 0 mm | - | 405 W/m² | - |
| 1778185376 | 18.89° C | 35% | 1006.8 hPa | 0 mm | - | 459 W/m² | - |
| 1778185071 | 18.33° C | 36% | 1007 hPa | 0 mm | - | 388 W/m² | - |
| 1778184768 | 18.89° C | 38% | 1006.9 hPa | 0 mm | - | 376 W/m² | - |
| 1778184464 | 18.33° C | 36% | 1006.8 hPa | 0 mm | - | 299 W/m² | - |
| 1778184160 | 19.44° C | 37% | 1007.2 hPa | 0 mm | - | 367 W/m² | - |
| 1778183857 | 18.89° C | 35% | 1007.2 hPa | 0 mm | - | 267 W/m² | - |
| 1778183554 | 17.78° C | 35% | 1007.1 hPa | 0 mm | - | 424 W/m² | - |
| 1778183251 | 18.89° C | 35% | 1007.2 hPa | 0 mm | - | 97 W/m² | - |
| 1778182947 | 18.89° C | 39% | 1007.1 hPa | 0 mm | - | 376 W/m² | - |
| 1778182644 | 18.33° C | 34% | 1007.3 hPa | 0 mm | - | 330 W/m² | - |
| 1778182341 | 18.33° C | 39% | 1007.4 hPa | 0 mm | - | 619 W/m² | - |
| 1778182037 | 17.78° C | 36% | 1007.3 hPa | 0 mm | - | 412 W/m² | - |
| 1778181734 | 18.89° C | 36% | 1007.5 hPa | 0 mm | - | 374 W/m² | - |
| 1778181429 | 18.89° C | 41% | 1007.3 hPa | 0 mm | - | 628 W/m² | - |
| 1778181126 | 17.78° C | 38% | 1007.5 hPa | 0 mm | - | 582 W/m² | - |
| 1778180818 | 18.89° C | 36% | 1007.7 hPa | 0 mm | - | 615 W/m² | - |
| 1778180516 | 17.78° C | 37% | 1007.9 hPa | 0 mm | - | 604 W/m² | - |
| 1778180214 | 17.78° C | 38% | 1007.6 hPa | 0 mm | - | 367 W/m² | - |
* Rain latest hour (hover to see other rain measurements)
** Current wind speed in m/s (hover to see current wind gust speed)